Terminal Aerodrome Forecast
Issued by NWS

Home | Current Version | Previous Version | Text Only | Print | Product List | Glossary On
Versions: 1 2 3 4 5 6 7 8 9 10 11 12 13 14 15
000
FTUS43 KGRB 240500
TAFCWA
TAF
KCWA 240527Z 2406/2506 36003KT P6SM SCT050
     FM240900 00000KT 5SM BR SCT050
     FM241500 23007KT P6SM SCT200
     FM242300 21003KT P6SM BKN100
      AMD LTD TO CLD VIS AND WIND TIL 241100=

USA.gov is the U.S. government's official web portal to all federal, state and local government web resources and services.